sensor_id;sensor_type;location;lat;lon;timestamp;P1;durP1;ratioP1;P2;durP2;ratioP2
69750;SDS011;57335;52.288;6.056;2022-12-07T00:01:41;13.38;;;3.47;;
69750;SDS011;57335;52.288;6.056;2022-12-07T00:04:10;12.43;;;3.40;;
69750;SDS011;57335;52.288;6.056;2022-12-07T00:06:39;11.38;;;3.20;;
69750;SDS011;57335;52.288;6.056;2022-12-07T00:09:09;9.18;;;3.25;;
69750;SDS011;57335;52.288;6.056;2022-12-07T00:11:38;9.30;;;3.13;;
69750;SDS011;57335;52.288;6.056;2022-12-07T00:16:32;12.05;;;3.20;;
69750;SDS011;57335;52.288;6.056;2022-12-07T00:19:00;10.25;;;3.05;;
69750;SDS011;57335;52.288;6.056;2022-12-07T00:21:28;11.18;;;3.05;;
69750;SDS011;57335;52.288;6.056;2022-12-07T00:23:59;13.77;;;2.85;;
69750;SDS011;57335;52.288;6.056;2022-12-07T00:26:30;8.43;;;2.55;;
69750;SDS011;57335;52.288;6.056;2022-12-07T00:28:59;8.45;;;2.58;;
69750;SDS011;57335;52.288;6.056;2022-12-07T00:31:29;7.20;;;2.38;;
69750;SDS011;57335;52.288;6.056;2022-12-07T00:33:59;8.65;;;2.60;;
69750;SDS011;57335;52.288;6.056;2022-12-07T00:36:25;7.75;;;2.40;;
69750;SDS011;57335;52.288;6.056;2022-12-07T00:38:53;7.57;;;2.30;;
69750;SDS011;57335;52.288;6.056;2022-12-07T00:41:22;8.43;;;2.30;;
69750;SDS011;57335;52.288;6.056;2022-12-07T00:43:49;9.07;;;2.70;;
69750;SDS011;57335;52.288;6.056;2022-12-07T00:46:17;8.85;;;2.55;;
69750;SDS011;57335;52.288;6.056;2022-12-07T00:48:45;8.45;;;2.50;;
69750;SDS011;57335;52.288;6.056;2022-12-07T00:51:13;8.27;;;2.30;;
69750;SDS011;57335;52.288;6.056;2022-12-07T00:53:40;9.75;;;2.45;;
69750;SDS011;57335;52.288;6.056;2022-12-07T00:56:21;7.97;;;2.30;;
69750;SDS011;57335;52.288;6.056;2022-12-07T00:58:53;12.18;;;2.72;;
69750;SDS011;57335;52.288;6.056;2022-12-07T01:01:21;6.93;;;2.38;;
69750;SDS011;57335;52.288;6.056;2022-12-07T01:03:48;7.57;;;2.45;;
69750;SDS011;57335;52.288;6.056;2022-12-07T01:08:42;10.07;;;2.50;;
69750;SDS011;57335;52.288;6.056;2022-12-07T01:11:09;7.72;;;2.33;;
69750;SDS011;57335;52.288;6.056;2022-12-07T01:13:39;7.38;;;2.28;;
69750;SDS011;57335;52.288;6.056;2022-12-07T01:16:06;10.23;;;2.15;;
69750;SDS011;57335;52.288;6.056;2022-12-07T01:18:34;5.72;;;1.90;;
69750;SDS011;57335;52.288;6.056;2022-12-07T01:21:05;12.00;;;2.42;;
69750;SDS011;57335;52.288;6.056;2022-12-07T01:23:40;9.10;;;2.20;;
69750;SDS011;57335;52.288;6.056;2022-12-07T01:26:10;7.00;;;2.33;;
69750;SDS011;57335;52.288;6.056;2022-12-07T01:28:38;8.23;;;2.00;;
69750;SDS011;57335;52.288;6.056;2022-12-07T01:31:07;9.60;;;1.95;;
69750;SDS011;57335;52.288;6.056;2022-12-07T01:33:46;8.13;;;1.83;;
69750;SDS011;57335;52.288;6.056;2022-12-07T01:36:18;7.47;;;1.90;;
69750;SDS011;57335;52.288;6.056;2022-12-07T01:38:49;8.68;;;2.15;;
69750;SDS011;57335;52.288;6.056;2022-12-07T01:41:18;7.28;;;1.90;;
69750;SDS011;57335;52.288;6.056;2022-12-07T01:44:20;7.72;;;2.05;;
69750;SDS011;57335;52.288;6.056;2022-12-07T01:46:38;5.47;;;1.45;;
69750;SDS011;57335;52.288;6.056;2022-12-07T01:49:06;5.45;;;1.60;;
69750;SDS011;57335;52.288;6.056;2022-12-07T01:51:36;5.50;;;1.55;;
69750;SDS011;57335;52.288;6.056;2022-12-07T01:54:06;6.40;;;1.60;;
69750;SDS011;57335;52.288;6.056;2022-12-07T01:56:34;7.40;;;1.70;;
69750;SDS011;57335;52.288;6.056;2022-12-07T01:59:00;4.55;;;1.55;;
69750;SDS011;57335;52.288;6.056;2022-12-07T02:03:54;9.38;;;1.80;;
69750;SDS011;57335;52.288;6.056;2022-12-07T02:06:22;7.85;;;1.70;;
69750;SDS011;57335;52.288;6.056;2022-12-07T02:08:51;10.32;;;1.60;;
69750;SDS011;57335;52.288;6.056;2022-12-07T02:11:19;5.35;;;1.30;;
69750;SDS011;57335;52.288;6.056;2022-12-07T02:13:46;7.35;;;1.25;;
69750;SDS011;57335;52.288;6.056;2022-12-07T02:18:53;8.88;;;1.50;;
69750;SDS011;57335;52.288;6.056;2022-12-07T02:29:35;7.57;;;1.45;;
69750;SDS011;57335;52.288;6.056;2022-12-07T02:32:16;5.95;;;1.52;;
69750;SDS011;57335;52.288;6.056;2022-12-07T02:37:43;9.50;;;2.00;;
69750;SDS011;57335;52.288;6.056;2022-12-07T02:40:26;7.55;;;1.63;;
69750;SDS011;57335;52.288;6.056;2022-12-07T02:43:06;7.15;;;1.70;;
69750;SDS011;57335;52.288;6.056;2022-12-07T02:45:45;6.80;;;1.30;;
69750;SDS011;57335;52.288;6.056;2022-12-07T02:48:13;7.65;;;1.63;;
69750;SDS011;57335;52.288;6.056;2022-12-07T02:50:49;6.90;;;1.20;;
69750;SDS011;57335;52.288;6.056;2022-12-07T02:56:08;8.10;;;1.27;;
69750;SDS011;57335;52.288;6.056;2022-12-07T02:58:53;6.38;;;1.20;;
69750;SDS011;57335;52.288;6.056;2022-12-07T03:01:58;8.25;;;1.50;;
69750;SDS011;57335;52.288;6.056;2022-12-07T03:04:36;8.40;;;1.65;;
69750;SDS011;57335;52.288;6.056;2022-12-07T03:07:18;11.52;;;1.75;;
69750;SDS011;57335;52.288;6.056;2022-12-07T03:12:56;9.77;;;1.40;;
69750;SDS011;57335;52.288;6.056;2022-12-07T03:18:24;6.45;;;1.10;;
69750;SDS011;57335;52.288;6.056;2022-12-07T03:20:55;8.02;;;1.10;;
69750;SDS011;57335;52.288;6.056;2022-12-07T03:23:25;4.47;;;1.48;;
69750;SDS011;57335;52.288;6.056;2022-12-07T03:25:56;8.77;;;1.60;;
69750;SDS011;57335;52.288;6.056;2022-12-07T03:28:27;6.47;;;1.20;;
69750;SDS011;57335;52.288;6.056;2022-12-07T03:31:00;9.57;;;1.73;;
69750;SDS011;57335;52.288;6.056;2022-12-07T03:33:40;7.13;;;1.17;;
69750;SDS011;57335;52.288;6.056;2022-12-07T03:36:24;4.05;;;1.20;;
69750;SDS011;57335;52.288;6.056;2022-12-07T03:39:01;5.10;;;1.20;;
69750;SDS011;57335;52.288;6.056;2022-12-07T03:41:41;6.97;;;1.40;;
69750;SDS011;57335;52.288;6.056;2022-12-07T03:44:10;9.75;;;1.58;;
69750;SDS011;57335;52.288;6.056;2022-12-07T03:46:42;2.78;;;0.90;;
69750;SDS011;57335;52.288;6.056;2022-12-07T03:52:21;5.53;;;1.00;;
69750;SDS011;57335;52.288;6.056;2022-12-07T03:54:57;6.75;;;1.05;;
69750;SDS011;57335;52.288;6.056;2022-12-07T03:57:28;5.18;;;1.17;;
69750;SDS011;57335;52.288;6.056;2022-12-07T03:59:56;4.75;;;0.90;;
69750;SDS011;57335;52.288;6.056;2022-12-07T04:02:24;4.78;;;1.00;;
69750;SDS011;57335;52.288;6.056;2022-12-07T04:04:53;7.57;;;1.13;;
69750;SDS011;57335;52.288;6.056;2022-12-07T04:07:21;3.90;;;0.77;;
69750;SDS011;57335;52.288;6.056;2022-12-07T04:09:48;9.02;;;1.70;;
69750;SDS011;57335;52.288;6.056;2022-12-07T04:14:41;7.07;;;1.58;;
69750;SDS011;57335;52.288;6.056;2022-12-07T04:19:34;8.32;;;1.00;;
69750;SDS011;57335;52.288;6.056;2022-12-07T04:22:01;6.07;;;0.90;;
69750;SDS011;57335;52.288;6.056;2022-12-07T04:24:29;4.53;;;0.90;;
69750;SDS011;57335;52.288;6.056;2022-12-07T04:26:56;8.88;;;1.30;;
69750;SDS011;57335;52.288;6.056;2022-12-07T04:29:22;4.28;;;0.80;;
69750;SDS011;57335;52.288;6.056;2022-12-07T04:31:49;8.55;;;1.27;;
69750;SDS011;57335;52.288;6.056;2022-12-07T04:34:16;6.80;;;1.33;;
69750;SDS011;57335;52.288;6.056;2022-12-07T04:36:44;3.05;;;0.88;;
69750;SDS011;57335;52.288;6.056;2022-12-07T04:41:49;6.07;;;1.20;;
69750;SDS011;57335;52.288;6.056;2022-12-07T04:44:16;7.60;;;1.15;;
69750;SDS011;57335;52.288;6.056;2022-12-07T04:46:44;6.47;;;1.27;;
69750;SDS011;57335;52.288;6.056;2022-12-07T04:49:11;3.80;;;1.40;;
69750;SDS011;57335;52.288;6.056;2022-12-07T04:51:39;6.10;;;1.05;;
69750;SDS011;57335;52.288;6.056;2022-12-07T04:54:06;9.25;;;1.38;;
69750;SDS011;57335;52.288;6.056;2022-12-07T04:56:32;6.53;;;1.48;;
69750;SDS011;57335;52.288;6.056;2022-12-07T04:58:59;4.10;;;1.00;;
69750;SDS011;57335;52.288;6.056;2022-12-07T05:01:25;7.28;;;1.45;;
69750;SDS011;57335;52.288;6.056;2022-12-07T05:06:18;6.40;;;1.40;;
69750;SDS011;57335;52.288;6.056;2022-12-07T05:08:45;10.70;;;1.45;;
69750;SDS011;57335;52.288;6.056;2022-12-07T05:11:12;4.82;;;1.13;;
69750;SDS011;57335;52.288;6.056;2022-12-07T05:13:39;10.27;;;1.52;;
69750;SDS011;57335;52.288;6.056;2022-12-07T05:18:32;3.90;;;1.20;;
69750;SDS011;57335;52.288;6.056;2022-12-07T05:20:58;3.25;;;1.02;;
69750;SDS011;57335;52.288;6.056;2022-12-07T05:25:51;14.13;;;1.58;;
69750;SDS011;57335;52.288;6.056;2022-12-07T05:30:44;8.77;;;1.25;;
69750;SDS011;57335;52.288;6.056;2022-12-07T05:35:36;4.95;;;1.08;;
69750;SDS011;57335;52.288;6.056;2022-12-07T05:38:03;10.50;;;1.45;;
69750;SDS011;57335;52.288;6.056;2022-12-07T05:40:29;8.90;;;1.70;;
69750;SDS011;57335;52.288;6.056;2022-12-07T05:45:29;9.50;;;1.77;;
69750;SDS011;57335;52.288;6.056;2022-12-07T05:47:56;8.23;;;1.40;;
69750;SDS011;57335;52.288;6.056;2022-12-07T05:50:22;6.50;;;1.40;;
69750;SDS011;57335;52.288;6.056;2022-12-07T05:55:15;6.05;;;1.60;;
69750;SDS011;57335;52.288;6.056;2022-12-07T05:57:41;6.07;;;1.45;;
69750;SDS011;57335;52.288;6.056;2022-12-07T06:02:35;6.22;;;1.40;;
69750;SDS011;57335;52.288;6.056;2022-12-07T06:05:01;5.78;;;1.00;;
69750;SDS011;57335;52.288;6.056;2022-12-07T06:09:54;5.70;;;1.60;;
69750;SDS011;57335;52.288;6.056;2022-12-07T06:15:00;5.88;;;1.10;;
69750;SDS011;57335;52.288;6.056;2022-12-07T06:17:27;7.65;;;1.20;;
69750;SDS011;57335;52.288;6.056;2022-12-07T06:19:53;4.13;;;0.98;;
69750;SDS011;57335;52.288;6.056;2022-12-07T06:22:20;10.05;;;1.40;;
69750;SDS011;57335;52.288;6.056;2022-12-07T06:27:13;2.88;;;0.88;;
69750;SDS011;57335;52.288;6.056;2022-12-07T06:29:39;9.00;;;1.42;;
69750;SDS011;57335;52.288;6.056;2022-12-07T06:32:06;4.30;;;1.25;;
69750;SDS011;57335;52.288;6.056;2022-12-07T06:34:33;7.75;;;1.50;;
69750;SDS011;57335;52.288;6.056;2022-12-07T06:36:59;5.07;;;1.45;;
69750;SDS011;57335;52.288;6.056;2022-12-07T06:39:26;8.40;;;1.30;;
69750;SDS011;57335;52.288;6.056;2022-12-07T06:41:54;6.05;;;1.30;;
69750;SDS011;57335;52.288;6.056;2022-12-07T06:44:21;6.32;;;1.30;;
69750;SDS011;57335;52.288;6.056;2022-12-07T06:46:48;10.38;;;1.17;;
69750;SDS011;57335;52.288;6.056;2022-12-07T06:49:16;8.65;;;1.77;;
69750;SDS011;57335;52.288;6.056;2022-12-07T06:51:43;8.00;;;1.40;;
69750;SDS011;57335;52.288;6.056;2022-12-07T06:54:10;7.68;;;1.45;;
69750;SDS011;57335;52.288;6.056;2022-12-07T06:56:39;7.18;;;1.63;;
69750;SDS011;57335;52.288;6.056;2022-12-07T06:59:09;9.35;;;1.70;;
69750;SDS011;57335;52.288;6.056;2022-12-07T07:01:38;7.90;;;1.63;;
69750;SDS011;57335;52.288;6.056;2022-12-07T07:04:05;8.77;;;1.63;;
69750;SDS011;57335;52.288;6.056;2022-12-07T07:06:32;6.18;;;1.73;;
69750;SDS011;57335;52.288;6.056;2022-12-07T07:08:58;7.00;;;1.58;;
69750;SDS011;57335;52.288;6.056;2022-12-07T07:11:25;8.77;;;1.75;;
69750;SDS011;57335;52.288;6.056;2022-12-07T07:13:52;10.35;;;1.90;;
69750;SDS011;57335;52.288;6.056;2022-12-07T07:18:45;7.95;;;1.35;;
69750;SDS011;57335;52.288;6.056;2022-12-07T07:21:11;3.92;;;1.35;;
69750;SDS011;57335;52.288;6.056;2022-12-07T07:29:17;7.85;;;1.60;;
69750;SDS011;57335;52.288;6.056;2022-12-07T07:36:54;6.90;;;1.70;;
69750;SDS011;57335;52.288;6.056;2022-12-07T07:41:46;10.73;;;2.03;;
69750;SDS011;57335;52.288;6.056;2022-12-07T07:46:39;8.40;;;1.55;;
69750;SDS011;57335;52.288;6.056;2022-12-07T07:49:06;11.45;;;1.58;;
69750;SDS011;57335;52.288;6.056;2022-12-07T07:51:32;9.85;;;1.80;;
69750;SDS011;57335;52.288;6.056;2022-12-07T07:56:25;5.78;;;1.30;;
69750;SDS011;57335;52.288;6.056;2022-12-07T07:58:52;6.60;;;1.50;;
69750;SDS011;57335;52.288;6.056;2022-12-07T08:01:18;8.25;;;1.85;;
69750;SDS011;57335;52.288;6.056;2022-12-07T08:06:14;6.47;;;1.55;;
69750;SDS011;57335;52.288;6.056;2022-12-07T08:08:41;6.18;;;1.33;;
69750;SDS011;57335;52.288;6.056;2022-12-07T08:13:35;7.20;;;1.52;;
69750;SDS011;57335;52.288;6.056;2022-12-07T08:16:05;4.88;;;1.30;;
69750;SDS011;57335;52.288;6.056;2022-12-07T08:18:37;4.28;;;1.20;;
69750;SDS011;57335;52.288;6.056;2022-12-07T08:21:05;6.00;;;1.00;;
69750;SDS011;57335;52.288;6.056;2022-12-07T08:23:32;7.75;;;1.48;;
69750;SDS011;57335;52.288;6.056;2022-12-07T08:26:06;4.80;;;1.30;;
69750;SDS011;57335;52.288;6.056;2022-12-07T08:28:35;7.65;;;1.40;;
69750;SDS011;57335;52.288;6.056;2022-12-07T08:31:03;5.35;;;1.52;;
69750;SDS011;57335;52.288;6.056;2022-12-07T08:33:34;6.78;;;1.45;;
69750;SDS011;57335;52.288;6.056;2022-12-07T08:36:05;4.65;;;1.23;;
69750;SDS011;57335;52.288;6.056;2022-12-07T08:38:37;6.07;;;1.35;;
69750;SDS011;57335;52.288;6.056;2022-12-07T08:41:04;5.53;;;1.40;;
69750;SDS011;57335;52.288;6.056;2022-12-07T08:43:31;6.28;;;1.40;;
69750;SDS011;57335;52.288;6.056;2022-12-07T08:48:54;3.80;;;1.25;;
69750;SDS011;57335;52.288;6.056;2022-12-07T08:51:24;5.68;;;1.35;;
69750;SDS011;57335;52.288;6.056;2022-12-07T08:53:51;6.07;;;1.63;;
69750;SDS011;57335;52.288;6.056;2022-12-07T08:56:19;4.57;;;1.35;;
69750;SDS011;57335;52.288;6.056;2022-12-07T08:58:45;5.47;;;1.88;;
69750;SDS011;57335;52.288;6.056;2022-12-07T09:01:12;2.63;;;1.10;;
69750;SDS011;57335;52.288;6.056;2022-12-07T09:03:39;4.82;;;0.90;;
69750;SDS011;57335;52.288;6.056;2022-12-07T09:08:33;5.82;;;1.60;;
69750;SDS011;57335;52.288;6.056;2022-12-07T09:11:02;5.53;;;1.27;;
69750;SDS011;57335;52.288;6.056;2022-12-07T09:13:29;6.85;;;1.60;;
69750;SDS011;57335;52.288;6.056;2022-12-07T09:18:21;6.78;;;1.50;;
69750;SDS011;57335;52.288;6.056;2022-12-07T09:23:14;5.80;;;1.35;;
69750;SDS011;57335;52.288;6.056;2022-12-07T09:28:07;6.57;;;1.30;;
69750;SDS011;57335;52.288;6.056;2022-12-07T09:30:33;6.40;;;1.35;;
69750;SDS011;57335;52.288;6.056;2022-12-07T09:33:17;9.45;;;1.70;;
69750;SDS011;57335;52.288;6.056;2022-12-07T09:35:45;4.18;;;1.33;;
69750;SDS011;57335;52.288;6.056;2022-12-07T09:38:12;5.43;;;1.33;;
69750;SDS011;57335;52.288;6.056;2022-12-07T09:40:39;3.88;;;1.30;;
69750;SDS011;57335;52.288;6.056;2022-12-07T09:43:11;6.30;;;1.70;;
69750;SDS011;57335;52.288;6.056;2022-12-07T09:45:40;7.95;;;1.38;;
69750;SDS011;57335;52.288;6.056;2022-12-07T09:48:17;7.70;;;1.65;;
69750;SDS011;57335;52.288;6.056;2022-12-07T09:50:46;5.85;;;1.30;;
69750;SDS011;57335;52.288;6.056;2022-12-07T09:53:27;8.20;;;1.60;;
69750;SDS011;57335;52.288;6.056;2022-12-07T09:55:56;10.45;;;1.80;;
69750;SDS011;57335;52.288;6.056;2022-12-07T09:58:24;8.95;;;1.80;;
69750;SDS011;57335;52.288;6.056;2022-12-07T10:00:55;9.55;;;1.30;;
69750;SDS011;57335;52.288;6.056;2022-12-07T10:03:29;5.32;;;1.33;;
69750;SDS011;57335;52.288;6.056;2022-12-07T10:05:55;3.95;;;1.00;;
69750;SDS011;57335;52.288;6.056;2022-12-07T10:08:24;4.20;;;1.02;;
69750;SDS011;57335;52.288;6.056;2022-12-07T10:10:54;4.40;;;0.90;;
69750;SDS011;57335;52.288;6.056;2022-12-07T10:13:33;8.15;;;1.23;;
69750;SDS011;57335;52.288;6.056;2022-12-07T10:16:02;7.05;;;1.17;;
69750;SDS011;57335;52.288;6.056;2022-12-07T10:23:34;6.72;;;1.15;;
69750;SDS011;57335;52.288;6.056;2022-12-07T10:28:53;7.22;;;1.40;;
69750;SDS011;57335;52.288;6.056;2022-12-07T10:31:22;7.43;;;1.30;;
69750;SDS011;57335;52.288;6.056;2022-12-07T10:36:26;6.32;;;1.30;;
69750;SDS011;57335;52.288;6.056;2022-12-07T10:39:10;3.75;;;1.10;;
69750;SDS011;57335;52.288;6.056;2022-12-07T10:41:59;3.50;;;1.02;;
69750;SDS011;57335;52.288;6.056;2022-12-07T10:44:27;5.28;;;0.80;;
69750;SDS011;57335;52.288;6.056;2022-12-07T10:46:58;4.05;;;0.80;;
69750;SDS011;57335;52.288;6.056;2022-12-07T11:00:21;5.00;;;1.13;;
69750;SDS011;57335;52.288;6.056;2022-12-07T11:05:54;4.05;;;1.20;;
69750;SDS011;57335;52.288;6.056;2022-12-07T11:11:42;7.18;;;1.30;;
69750;SDS011;57335;52.288;6.056;2022-12-07T11:14:28;5.20;;;1.00;;
69750;SDS011;57335;52.288;6.056;2022-12-07T11:23:13;2.60;;;0.90;;
69750;SDS011;57335;52.288;6.056;2022-12-07T11:28:39;5.90;;;1.38;;
69750;SDS011;57335;52.288;6.056;2022-12-07T11:36:37;6.00;;;1.10;;
69750;SDS011;57335;52.288;6.056;2022-12-07T11:41:54;5.70;;;1.35;;
69750;SDS011;57335;52.288;6.056;2022-12-07T11:52:16;8.43;;;1.38;;
69750;SDS011;57335;52.288;6.056;2022-12-07T11:54:48;8.35;;;1.23;;
69750;SDS011;57335;52.288;6.056;2022-12-07T11:57:20;4.95;;;1.00;;
69750;SDS011;57335;52.288;6.056;2022-12-07T11:59:56;6.22;;;1.08;;
69750;SDS011;57335;52.288;6.056;2022-12-07T12:02:29;6.28;;;1.15;;
69750;SDS011;57335;52.288;6.056;2022-12-07T12:05:07;7.40;;;1.10;;
69750;SDS011;57335;52.288;6.056;2022-12-07T12:07:41;3.90;;;1.00;;
69750;SDS011;57335;52.288;6.056;2022-12-07T12:10:35;5.38;;;1.02;;
69750;SDS011;57335;52.288;6.056;2022-12-07T12:13:21;4.03;;;1.10;;
69750;SDS011;57335;52.288;6.056;2022-12-07T12:16:25;6.18;;;1.20;;
69750;SDS011;57335;52.288;6.056;2022-12-07T12:22:01;4.47;;;0.98;;
69750;SDS011;57335;52.288;6.056;2022-12-07T12:24:40;4.20;;;0.90;;
69750;SDS011;57335;52.288;6.056;2022-12-07T12:27:14;5.07;;;0.93;;
69750;SDS011;57335;52.288;6.056;2022-12-07T12:29:50;7.50;;;1.10;;
69750;SDS011;57335;52.288;6.056;2022-12-07T12:32:24;9.45;;;1.30;;
69750;SDS011;57335;52.288;6.056;2022-12-07T12:35:20;5.90;;;1.48;;
69750;SDS011;57335;52.288;6.056;2022-12-07T12:38:20;3.25;;;1.00;;
69750;SDS011;57335;52.288;6.056;2022-12-07T12:40:46;5.00;;;1.17;;
69750;SDS011;57335;52.288;6.056;2022-12-07T12:51:42;3.63;;;0.98;;
69750;SDS011;57335;52.288;6.056;2022-12-07T12:54:26;4.40;;;0.80;;
69750;SDS011;57335;52.288;6.056;2022-12-07T13:02:25;3.40;;;1.13;;
69750;SDS011;57335;52.288;6.056;2022-12-07T13:04:55;6.15;;;0.98;;
69750;SDS011;57335;52.288;6.056;2022-12-07T13:15:52;7.35;;;0.90;;
69750;SDS011;57335;52.288;6.056;2022-12-07T13:18:39;4.13;;;0.80;;
69750;SDS011;57335;52.288;6.056;2022-12-07T13:26:17;5.20;;;0.88;;
69750;SDS011;57335;52.288;6.056;2022-12-07T13:28:45;4.93;;;0.75;;
69750;SDS011;57335;52.288;6.056;2022-12-07T13:34:00;7.07;;;1.00;;
69750;SDS011;57335;52.288;6.056;2022-12-07T13:36:37;2.83;;;0.90;;
69750;SDS011;57335;52.288;6.056;2022-12-07T13:39:44;4.93;;;1.00;;
69750;SDS011;57335;52.288;6.056;2022-12-07T13:41:59;5.93;;;1.20;;
69750;SDS011;57335;52.288;6.056;2022-12-07T13:44:41;5.30;;;1.10;;
69750;SDS011;57335;52.288;6.056;2022-12-07T13:47:17;4.68;;;0.80;;
69750;SDS011;57335;52.288;6.056;2022-12-07T13:49:53;6.47;;;1.10;;
69750;SDS011;57335;52.288;6.056;2022-12-07T13:52:25;5.22;;;0.80;;
69750;SDS011;57335;52.288;6.056;2022-12-07T13:55:27;4.60;;;1.00;;
69750;SDS011;57335;52.288;6.056;2022-12-07T13:57:50;4.95;;;0.90;;
69750;SDS011;57335;52.288;6.056;2022-12-07T14:00:22;4.47;;;0.70;;
69750;SDS011;57335;52.288;6.056;2022-12-07T14:02:55;5.90;;;1.00;;
69750;SDS011;57335;52.288;6.056;2022-12-07T14:05:29;6.55;;;1.15;;
69750;SDS011;57335;52.288;6.056;2022-12-07T14:08:03;8.35;;;1.00;;
69750;SDS011;57335;52.288;6.056;2022-12-07T14:10:36;6.43;;;1.05;;
69750;SDS011;57335;52.288;6.056;2022-12-07T14:15:51;5.55;;;0.82;;
69750;SDS011;57335;52.288;6.056;2022-12-07T14:18:25;6.65;;;0.90;;
69750;SDS011;57335;52.288;6.056;2022-12-07T14:21:06;5.60;;;1.02;;
69750;SDS011;57335;52.288;6.056;2022-12-07T14:23:40;4.40;;;0.90;;
69750;SDS011;57335;52.288;6.056;2022-12-07T14:26:07;5.07;;;1.17;;
69750;SDS011;57335;52.288;6.056;2022-12-07T14:28:40;6.10;;;0.90;;
69750;SDS011;57335;52.288;6.056;2022-12-07T14:31:10;5.25;;;0.82;;
69750;SDS011;57335;52.288;6.056;2022-12-07T14:33:49;3.40;;;1.00;;
69750;SDS011;57335;52.288;6.056;2022-12-07T14:36:15;3.40;;;0.90;;
69750;SDS011;57335;52.288;6.056;2022-12-07T14:38:42;3.80;;;1.00;;
69750;SDS011;57335;52.288;6.056;2022-12-07T14:41:15;2.42;;;0.90;;
69750;SDS011;57335;52.288;6.056;2022-12-07T14:43:48;3.97;;;1.00;;
69750;SDS011;57335;52.288;6.056;2022-12-07T14:46:35;3.85;;;0.73;;
69750;SDS011;57335;52.288;6.056;2022-12-07T14:49:01;6.95;;;0.90;;
69750;SDS011;57335;52.288;6.056;2022-12-07T14:51:48;3.38;;;0.80;;
69750;SDS011;57335;52.288;6.056;2022-12-07T14:54:34;2.15;;;0.80;;
69750;SDS011;57335;52.288;6.056;2022-12-07T14:57:00;3.60;;;0.77;;
69750;SDS011;57335;52.288;6.056;2022-12-07T14:59:27;3.53;;;1.02;;
69750;SDS011;57335;52.288;6.056;2022-12-07T15:01:53;3.63;;;0.90;;
69750;SDS011;57335;52.288;6.056;2022-12-07T15:04:19;2.33;;;0.68;;
69750;SDS011;57335;52.288;6.056;2022-12-07T15:06:56;3.63;;;0.85;;
69750;SDS011;57335;52.288;6.056;2022-12-07T15:09:23;1.65;;;0.60;;
69750;SDS011;57335;52.288;6.056;2022-12-07T15:11:49;4.13;;;0.80;;
69750;SDS011;57335;52.288;6.056;2022-12-07T15:16:42;8.82;;;1.15;;
69750;SDS011;57335;52.288;6.056;2022-12-07T15:19:29;4.22;;;0.80;;
69750;SDS011;57335;52.288;6.056;2022-12-07T15:21:56;3.50;;;1.20;;
69750;SDS011;57335;52.288;6.056;2022-12-07T15:24:23;2.40;;;0.90;;
69750;SDS011;57335;52.288;6.056;2022-12-07T15:26:50;7.15;;;0.88;;
69750;SDS011;57335;52.288;6.056;2022-12-07T15:29:16;3.65;;;1.20;;
69750;SDS011;57335;52.288;6.056;2022-12-07T15:31:49;6.50;;;1.25;;
69750;SDS011;57335;52.288;6.056;2022-12-07T15:34:26;4.10;;;1.00;;
69750;SDS011;57335;52.288;6.056;2022-12-07T15:36:55;8.82;;;2.42;;
69750;SDS011;57335;52.288;6.056;2022-12-07T15:39:22;20.13;;;6.28;;
69750;SDS011;57335;52.288;6.056;2022-12-07T15:44:15;9.35;;;1.85;;
69750;SDS011;57335;52.288;6.056;2022-12-07T15:46:41;8.52;;;3.20;;
69750;SDS011;57335;52.288;6.056;2022-12-07T15:49:12;6.75;;;2.67;;
69750;SDS011;57335;52.288;6.056;2022-12-07T15:51:41;4.30;;;1.23;;
69750;SDS011;57335;52.288;6.056;2022-12-07T15:54:21;4.60;;;1.27;;
69750;SDS011;57335;52.288;6.056;2022-12-07T15:56:49;3.38;;;0.98;;
69750;SDS011;57335;52.288;6.056;2022-12-07T15:59:16;4.72;;;1.00;;
69750;SDS011;57335;52.288;6.056;2022-12-07T16:01:43;3.95;;;1.10;;
69750;SDS011;57335;52.288;6.056;2022-12-07T16:04:09;3.38;;;0.90;;
69750;SDS011;57335;52.288;6.056;2022-12-07T16:06:36;6.00;;;1.00;;
69750;SDS011;57335;52.288;6.056;2022-12-07T16:11:29;4.63;;;0.90;;
69750;SDS011;57335;52.288;6.056;2022-12-07T16:16:22;4.45;;;1.20;;
69750;SDS011;57335;52.288;6.056;2022-12-07T16:18:49;8.32;;;1.45;;
69750;SDS011;57335;52.288;6.056;2022-12-07T16:21:17;4.70;;;1.13;;
69750;SDS011;57335;52.288;6.056;2022-12-07T16:23:50;4.07;;;1.30;;
69750;SDS011;57335;52.288;6.056;2022-12-07T16:28:44;2.90;;;1.40;;
69750;SDS011;57335;52.288;6.056;2022-12-07T16:31:12;4.03;;;1.30;;
69750;SDS011;57335;52.288;6.056;2022-12-07T16:33:40;5.07;;;1.48;;
69750;SDS011;57335;52.288;6.056;2022-12-07T16:36:09;4.97;;;1.35;;
69750;SDS011;57335;52.288;6.056;2022-12-07T16:38:36;5.43;;;1.60;;
69750;SDS011;57335;52.288;6.056;2022-12-07T16:41:04;4.38;;;1.33;;
69750;SDS011;57335;52.288;6.056;2022-12-07T16:43:32;4.88;;;1.42;;
69750;SDS011;57335;52.288;6.056;2022-12-07T16:45:59;3.72;;;1.20;;
69750;SDS011;57335;52.288;6.056;2022-12-07T16:48:26;4.43;;;1.50;;
69750;SDS011;57335;52.288;6.056;2022-12-07T16:50:52;7.05;;;1.45;;
69750;SDS011;57335;52.288;6.056;2022-12-07T16:55:46;4.40;;;1.30;;
69750;SDS011;57335;52.288;6.056;2022-12-07T16:58:13;7.22;;;1.75;;
69750;SDS011;57335;52.288;6.056;2022-12-07T17:00:41;8.20;;;1.80;;
69750;SDS011;57335;52.288;6.056;2022-12-07T17:03:09;5.30;;;1.25;;
69750;SDS011;57335;52.288;6.056;2022-12-07T17:05:40;6.10;;;1.40;;
69750;SDS011;57335;52.288;6.056;2022-12-07T17:08:07;6.38;;;1.23;;
69750;SDS011;57335;52.288;6.056;2022-12-07T17:10:35;5.20;;;1.60;;
69750;SDS011;57335;52.288;6.056;2022-12-07T17:13:04;6.90;;;1.98;;
69750;SDS011;57335;52.288;6.056;2022-12-07T17:15:31;5.40;;;1.90;;
69750;SDS011;57335;52.288;6.056;2022-12-07T17:17:58;7.03;;;1.67;;
69750;SDS011;57335;52.288;6.056;2022-12-07T17:20:25;4.80;;;1.80;;
69750;SDS011;57335;52.288;6.056;2022-12-07T17:22:53;5.72;;;1.60;;
69750;SDS011;57335;52.288;6.056;2022-12-07T17:25:19;6.85;;;1.70;;
69750;SDS011;57335;52.288;6.056;2022-12-07T17:27:47;4.85;;;1.58;;
69750;SDS011;57335;52.288;6.056;2022-12-07T17:30:13;5.90;;;1.67;;
69750;SDS011;57335;52.288;6.056;2022-12-07T17:32:40;4.68;;;1.52;;
69750;SDS011;57335;52.288;6.056;2022-12-07T17:37:32;3.67;;;1.20;;
69750;SDS011;57335;52.288;6.056;2022-12-07T17:42:25;6.32;;;1.60;;
69750;SDS011;57335;52.288;6.056;2022-12-07T17:44:52;6.22;;;1.60;;
69750;SDS011;57335;52.288;6.056;2022-12-07T17:49:45;6.55;;;1.60;;
69750;SDS011;57335;52.288;6.056;2022-12-07T17:52:11;7.38;;;1.50;;
69750;SDS011;57335;52.288;6.056;2022-12-07T17:57:04;5.18;;;1.63;;
69750;SDS011;57335;52.288;6.056;2022-12-07T18:01:57;5.85;;;1.70;;
69750;SDS011;57335;52.288;6.056;2022-12-07T18:04:23;9.32;;;1.98;;
69750;SDS011;57335;52.288;6.056;2022-12-07T18:09:18;6.90;;;2.20;;
69750;SDS011;57335;52.288;6.056;2022-12-07T18:11:45;7.13;;;1.92;;
69750;SDS011;57335;52.288;6.056;2022-12-07T18:16:38;4.40;;;1.73;;
69750;SDS011;57335;52.288;6.056;2022-12-07T18:19:05;9.05;;;2.30;;
69750;SDS011;57335;52.288;6.056;2022-12-07T18:21:32;7.53;;;2.17;;
69750;SDS011;57335;52.288;6.056;2022-12-07T18:23:59;8.02;;;1.90;;
69750;SDS011;57335;52.288;6.056;2022-12-07T18:26:27;6.15;;;2.50;;
69750;SDS011;57335;52.288;6.056;2022-12-07T18:28:55;6.13;;;2.13;;
69750;SDS011;57335;52.288;6.056;2022-12-07T18:31:23;5.55;;;2.03;;
69750;SDS011;57335;52.288;6.056;2022-12-07T18:33:50;6.63;;;2.03;;
69750;SDS011;57335;52.288;6.056;2022-12-07T18:38:42;7.03;;;2.10;;
69750;SDS011;57335;52.288;6.056;2022-12-07T18:41:10;11.65;;;2.80;;
69750;SDS011;57335;52.288;6.056;2022-12-07T18:43:38;6.40;;;2.25;;
69750;SDS011;57335;52.288;6.056;2022-12-07T18:46:13;7.47;;;2.42;;
69750;SDS011;57335;52.288;6.056;2022-12-07T18:48:42;9.65;;;2.85;;
69750;SDS011;57335;52.288;6.056;2022-12-07T18:51:09;10.60;;;3.28;;
69750;SDS011;57335;52.288;6.056;2022-12-07T18:53:37;9.48;;;3.25;;